Time;durP1;ratioP1;P1;durP2;ratioP2;P2;SDS_P1;SDS_P2;PMS_P1;PMS_P2;Temp;Humidity;BMP_temperature;BMP_pressure;BME280_temperature;BME280_humidity;BME280_pressure;Samples;Min_cycle;Max_cycle;Signal;HPM_P1;HPM_P2
2023/01/03 00:01:37;;;;;;;18.42;9.43;;;;;;;4.93;100.00;102483.09;5001861;28;20022;-91
2023/01/03 00:04:03;;;;;;;15.48;8.85;;;;;;;4.87;100.00;102488.44;5006122;28;20026;-91
2023/01/03 00:06:43;;;;;;;17.35;9.23;;;;;;;4.88;100.00;102492.78;4987646;28;20041;-91
2023/01/03 00:09:28;;;;;;;17.15;8.80;;;;;;;4.84;100.00;102490.28;4992015;28;20026;-91
2023/01/03 00:14:40;;;;;;;15.02;8.82;;;;;;;4.72;100.00;102494.84;4991292;28;20411;-91
2023/01/03 00:17:07;;;;;;;17.00;9.35;;;;;;;4.68;100.00;102494.97;5006541;28;20117;-91
2023/01/03 00:19:35;;;;;;;16.40;9.30;;;;;;;4.64;100.00;102498.53;4989153;28;20150;-90
2023/01/03 00:22:00;;;;;;;13.20;8.85;;;;;;;4.66;100.00;102494.16;4989637;28;20029;-91
2023/01/03 00:24:26;;;;;;;19.38;9.43;;;;;;;4.56;100.00;102484.84;5006363;28;20022;-91
2023/01/03 00:26:51;;;;;;;16.55;9.00;;;;;;;4.52;100.00;102477.97;4989223;28;20038;-91
2023/01/03 00:29:18;;;;;;;18.27;10.13;;;;;;;4.49;100.00;102483.25;4990605;28;20027;-91
2023/01/03 00:31:44;;;;;;;14.68;9.73;;;;;;;4.44;100.00;102487.72;4988001;28;20145;-91
2023/01/03 00:34:10;;;;;;;15.48;10.40;;;;;;;4.41;100.00;102480.81;4986682;28;20118;-91
2023/01/03 00:36:36;;;;;;;19.38;10.48;;;;;;;4.40;100.00;102485.19;4986784;28;20396;-91
2023/01/03 00:39:05;;;;;;;16.95;10.57;;;;;;;4.40;100.00;102495.59;4985833;28;20034;-91
2023/01/03 00:41:31;;;;;;;18.08;10.40;;;;;;;4.37;100.00;102494.78;4971366;28;20027;-91
2023/01/03 00:43:57;;;;;;;19.83;11.15;;;;;;;4.33;100.00;102496.59;4999801;28;20029;-91
2023/01/03 00:46:23;;;;;;;17.55;10.23;;;;;;;4.29;100.00;102497.56;4984308;28;20038;-91
2023/01/03 00:48:49;;;;;;;16.75;11.05;;;;;;;4.23;100.00;102505.50;5005793;28;20542;-90
2023/01/03 00:51:20;;;;;;;16.60;10.63;;;;;;;4.23;100.00;102507.25;4990252;28;20026;-90
2023/01/03 00:53:48;;;;;;;18.52;10.68;;;;;;;4.17;100.00;102512.59;4985657;28;20103;-91
2023/01/03 00:56:16;;;;;;;18.45;11.30;;;;;;;4.17;100.00;102510.84;4981685;28;20081;-90
2023/01/03 00:58:42;;;;;;;20.70;11.57;;;;;;;4.15;100.00;102515.22;4990516;28;20045;-91
2023/01/03 01:01:20;;;;;;;18.50;11.98;;;;;;;4.16;100.00;102511.75;4987939;28;20483;-91
2023/01/03 01:03:51;;;;;;;18.25;12.30;;;;;;;4.15;100.00;102510.03;4989752;28;20097;-90
2023/01/03 01:06:23;;;;;;;18.15;11.75;;;;;;;4.07;100.00;102518.00;4987561;28;20471;-91
2023/01/03 01:08:50;;;;;;;18.60;11.52;;;;;;;3.99;100.00;102504.25;4990082;28;20061;-90
2023/01/03 01:11:16;;;;;;;22.27;11.82;;;;;;;3.98;100.00;102518.16;4987074;28;20045;-91
2023/01/03 01:13:43;;;;;;;19.00;12.25;;;;;;;3.97;100.00;102516.44;5003439;28;20038;-91
2023/01/03 01:16:14;;;;;;;17.70;12.35;;;;;;;3.93;100.00;102530.41;5009205;28;20048;-91
2023/01/03 01:18:42;;;;;;;17.20;11.77;;;;;;;3.90;100.00;102525.28;4990942;28;20443;-91
2023/01/03 01:21:11;;;;;;;23.80;13.05;;;;;;;3.90;100.00;102534.81;4994561;28;20289;-90
2023/01/03 01:23:38;;;;;;;16.58;11.35;;;;;;;3.85;100.00;102531.44;4994828;28;20018;-91
2023/01/03 01:26:05;;;;;;;19.35;12.75;;;;;;;3.87;100.00;102534.88;4994666;28;20053;-91
2023/01/03 01:28:31;;;;;;;18.42;12.88;;;;;;;3.86;100.00;102522.75;4993120;28;20027;-90
2023/01/03 01:30:57;;;;;;;19.95;13.25;;;;;;;3.88;100.00;102536.59;4994292;28;20045;-90
2023/01/03 01:33:23;;;;;;;18.65;13.02;;;;;;;3.77;100.00;102529.84;4984483;28;20022;-91
2023/01/03 01:35:48;;;;;;;20.27;12.23;;;;;;;3.80;100.00;102533.28;4993295;28;20030;-91
2023/01/03 01:38:13;;;;;;;17.73;12.98;;;;;;;3.71;100.00;102529.13;4993296;28;20023;-91
2023/01/03 01:40:39;;;;;;;18.50;13.15;;;;;;;3.72;100.00;102523.03;4993182;28;20042;-91
2023/01/03 01:46:24;;;;;;;19.10;13.75;;;;;;;3.72;100.00;102547.31;4995478;28;20053;-91
2023/01/03 01:48:55;;;;;;;25.95;13.65;;;;;;;3.71;100.00;102553.41;4975134;28;20136;-91
2023/01/03 01:51:23;;;;;;;16.00;12.73;;;;;;;3.64;100.00;102551.81;4993170;28;20026;-90
2023/01/03 01:53:51;;;;;;;20.92;14.68;;;;;;;3.68;100.00;102550.84;4993268;28;20041;-91
2023/01/03 01:56:28;;;;;;;22.42;14.73;;;;;;;3.64;100.00;102562.22;5005547;28;20054;-91
2023/01/03 01:58:54;;;;;;;21.60;14.15;;;;;;;3.58;100.00;102561.44;4992464;28;20534;-90
2023/01/03 02:01:21;;;;;;;20.45;14.02;;;;;;;3.57;100.00;102568.38;4993756;28;20124;-90
2023/01/03 02:03:55;;;;;;;23.60;13.52;;;;;;;3.58;100.00;102567.50;4994772;28;20101;-91
2023/01/03 02:06:22;;;;;;;20.40;13.57;;;;;;;3.40;100.00;102562.63;5001181;28;20447;-91
2023/01/03 02:08:48;;;;;;;16.50;13.48;;;;;;;3.36;100.00;102553.16;4990076;28;20023;-91
2023/01/03 02:11:26;;;;;;;19.75;14.00;;;;;;;3.40;100.00;102554.81;4990890;28;20472;-91
2023/01/03 02:14:28;;;;;;;20.98;14.38;;;;;;;3.46;100.00;102557.31;4987365;28;20488;-91
2023/01/03 02:17:16;;;;;;;20.80;14.30;;;;;;;3.45;100.00;102548.66;5009387;28;20368;-91
2023/01/03 02:20:05;;;;;;;22.27;14.18;;;;;;;3.34;100.00;102552.31;5009515;28;20022;-90
2023/01/03 02:23:11;;;;;;;22.98;14.40;;;;;;;3.40;100.00;102562.63;5015445;28;20046;-91
2023/01/03 02:25:39;;;;;;;18.33;14.30;;;;;;;3.40;100.00;102573.03;4992490;28;20046;-91
2023/01/03 02:28:16;;;;;;;21.75;14.88;;;;;;;3.32;100.00;102572.28;5008882;28;20077;-91
2023/01/03 02:30:59;;;;;;;19.30;14.35;;;;;;;3.30;100.00;102579.28;4993370;28;20038;-91
2023/01/03 02:33:24;;;;;;;;;;;;;;;3.38;100.00;102572.19;4992456;28;20049;-90
2023/01/03 02:36:05;;;;;;;18.57;14.23;;;;;;;3.31;100.00;102567.97;5009665;28;19949;-91
2023/01/03 02:38:47;;;;;;;17.85;14.23;;;;;;;3.25;100.00;102568.09;4992660;28;20291;-91
2023/01/03 02:41:31;;;;;;;16.25;13.80;;;;;;;3.23;100.00;102562.91;4998811;28;20548;-91
2023/01/03 02:44:27;;;;;;;17.48;14.35;;;;;;;3.28;100.00;102562.81;4990967;28;20502;-91
2023/01/03 02:47:07;;;;;;;17.92;14.27;;;;;;;3.16;100.00;102566.47;5007829;28;20034;-91
2023/01/03 02:49:47;;;;;;;17.13;14.30;;;;;;;3.13;100.00;102562.16;4994364;28;20033;-91
2023/01/03 02:52:18;;;;;;;20.67;14.45;;;;;;;3.09;100.00;102565.69;5008876;28;20481;-91
2023/01/03 02:54:56;;;;;;;20.23;14.48;;;;;;;3.11;100.00;102569.13;5008550;28;20029;-91
2023/01/03 02:57:55;;;;;;;19.98;14.80;;;;;;;3.14;100.00;102569.09;4987535;28;20675;-91
2023/01/03 03:00:24;;;;;;;18.77;13.35;;;;;;;3.02;100.00;102564.06;4988958;28;20524;-91
2023/01/03 03:02:57;;;;;;;20.50;14.93;;;;;;;3.11;100.00;102561.34;5007574;28;20034;-90
2023/01/03 03:05:27;;;;;;;20.63;14.50;;;;;;;3.04;100.00;102564.91;5003588;28;20030;-90
2023/01/03 03:07:53;;;;;;;18.95;14.60;;;;;;;2.98;100.00;102566.75;4992614;28;20065;-91
2023/01/03 03:13:21;;;;;;;20.35;14.88;;;;;;;3.04;100.00;102567.50;4992043;28;20514;-91
2023/01/03 03:16:04;;;;;;;24.25;14.85;;;;;;;3.06;100.00;102575.28;4992629;28;20502;-91
2023/01/03 03:18:52;;;;;;;20.73;14.90;;;;;;;3.03;100.00;102573.59;4991598;28;20087;-91
2023/01/03 03:24:48;;;;;;;19.73;15.27;;;;;;;2.99;100.00;102579.72;4993570;28;20406;-90
2023/01/03 03:28:33;;;;;;;21.35;15.82;;;;;;;3.02;100.00;102564.06;4993699;28;20394;-91
2023/01/03 03:29:51;;;;;;;19.00;14.75;;;;;;;2.95;100.00;102566.78;4993961;28;20139;-91
2023/01/03 03:32:17;;;;;;;19.33;15.43;;;;;;;2.99;100.00;102563.25;4990516;28;20026;-91
2023/01/03 03:34:44;;;;;;;21.83;15.55;;;;;;;3.02;100.00;102558.88;4991671;28;20034;-90
2023/01/03 03:37:17;;;;;;;24.63;15.50;;;;;;;2.98;100.00;102561.56;5005748;28;20050;-91
2023/01/03 03:45:27;;;;;;;22.92;15.05;;;;;;;2.87;100.00;102569.50;4993628;28;20389;-92
2023/01/03 03:48:16;;;;;;;22.10;14.50;;;;;;;2.94;100.00;102571.13;4992216;28;20045;-90
2023/01/03 03:50:51;;;;;;;24.23;15.40;;;;;;;2.86;100.00;102570.41;4985017;28;20096;-91
2023/01/03 03:53:21;;;;;;;20.77;14.63;;;;;;;2.89;100.00;102567.75;4990386;28;20088;-91
2023/01/03 03:55:57;;;;;;;23.77;14.43;;;;;;;2.91;100.00;102570.31;4992068;28;20030;-91
2023/01/03 03:58:29;;;;;;;21.23;15.05;;;;;;;2.83;100.00;102566.09;5006486;28;20030;-91
2023/01/03 04:00:56;;;;;;;19.75;14.45;;;;;;;2.83;100.00;102566.09;4987353;28;20085;-91
2023/01/03 04:03:23;;;;;;;23.65;14.40;;;;;;;2.85;100.00;102565.22;4983414;28;20018;-90
2023/01/03 04:05:56;;;;;;;22.75;14.50;;;;;;;2.81;100.00;102569.59;4987888;28;20037;-90
2023/01/03 04:08:21;;;;;;;19.00;14.82;;;;;;;2.82;100.00;102568.72;4984167;28;20026;-91
2023/01/03 04:10:46;;;;;;;21.45;14.68;;;;;;;2.84;100.00;102569.56;4991988;28;20367;-91
2023/01/03 04:13:12;;;;;;;24.08;14.30;;;;;;;2.80;100.00;102565.25;4991583;28;20570;-90
2023/01/03 04:15:37;;;;;;;20.38;14.82;;;;;;;2.83;100.00;102562.63;4989389;28;20450;-91
2023/01/03 04:18:03;;;;;;;22.02;14.90;;;;;;;2.86;100.00;102570.41;4989447;28;20054;-90
2023/01/03 04:20:28;;;;;;;20.88;15.32;;;;;;;2.85;100.00;102566.06;4991929;28;20820;-91
2023/01/03 04:22:54;;;;;;;24.35;15.95;;;;;;;2.85;100.00;102563.47;4990058;28;20022;-91
2023/01/03 04:25:20;;;;;;;21.92;14.75;;;;;;;2.83;100.00;102557.44;4991407;28;20031;-91
2023/01/03 04:27:45;;;;;;;20.63;15.07;;;;;;;2.85;100.00;102555.69;5006187;28;20177;-91
2023/01/03 04:30:14;;;;;;;19.83;14.80;;;;;;;2.90;100.00;102558.22;4990841;28;20080;-90
2023/01/03 04:32:39;;;;;;;22.63;15.90;;;;;;;2.86;100.00;102561.75;5005761;28;20085;-91
2023/01/03 04:35:05;;;;;;;19.48;15.25;;;;;;;2.89;100.00;102556.50;4988064;28;20034;-91
2023/01/03 04:37:30;;;;;;;24.63;16.67;;;;;;;2.87;100.00;102556.50;4986781;28;20212;-91
2023/01/03 04:39:56;;;;;;;20.42;15.70;;;;;;;2.87;100.00;102553.91;4988219;28;20030;-91
2023/01/03 04:45:06;;;;;;;23.95;16.67;;;;;;;2.87;100.00;102564.31;4988039;28;20049;-91
2023/01/03 04:47:31;;;;;;;23.20;17.52;;;;;;;2.82;100.00;102566.13;5004648;28;20121;-91
2023/01/03 04:49:56;;;;;;;25.48;18.05;;;;;;;2.83;100.00;102567.84;5005811;28;20563;-91
2023/01/03 04:52:22;;;;;;;25.90;18.20;;;;;;;2.79;100.00;102568.72;4989957;28;20550;-91
2023/01/03 04:54:47;;;;;;;26.33;19.13;;;;;;;2.79;100.00;102563.53;5004218;28;20080;-91
2023/01/03 04:57:13;;;;;;;30.25;20.40;;;;;;;2.83;100.00;102560.91;4989852;28;20037;-91
2023/01/03 04:59:38;;;;;;;27.60;20.15;;;;;;;2.77;100.00;102566.16;4991807;28;20030;-91
2023/01/03 05:02:04;;;;;;;26.88;20.25;;;;;;;2.78;100.00;102564.41;4994325;28;20030;-91
2023/01/03 05:04:29;;;;;;;30.48;20.55;;;;;;;2.80;100.00;102563.56;5008353;28;20537;-91
2023/01/03 05:06:55;;;;;;;26.90;20.95;;;;;;;2.76;100.00;102550.59;4988627;28;20030;-91
2023/01/03 05:09:21;;;;;;;27.92;21.08;;;;;;;2.81;100.00;102552.28;4984999;28;20105;-91
2023/01/03 05:11:46;;;;;;;25.98;20.60;;;;;;;2.81;100.00;102548.81;4994231;28;20411;-91
2023/01/03 05:14:12;;;;;;;29.75;22.23;;;;;;;2.83;100.00;102553.09;4991330;28;20023;-91
2023/01/03 05:16:37;;;;;;;28.23;21.73;;;;;;;2.82;100.00;102555.72;4993455;28;20030;-90
2023/01/03 05:19:03;;;;;;;35.03;21.58;;;;;;;2.83;100.00;102554.84;5008063;28;20464;-90
2023/01/03 05:27:03;;;;;;;28.48;20.70;;;;;;;2.80;100.00;102552.25;4994261;28;20045;-91
2023/01/03 05:29:29;;;;;;;25.52;20.60;;;;;;;2.80;100.00;102549.66;4993764;28;20112;-91
2023/01/03 05:31:55;;;;;;;26.35;20.30;;;;;;;2.82;100.00;102545.34;4995510;28;20022;-91
2023/01/03 05:34:20;;;;;;;29.33;20.58;;;;;;;2.79;100.00;102534.94;4992499;28;20036;-91
2023/01/03 05:36:46;;;;;;;25.50;19.88;;;;;;;2.77;100.00;102537.56;5009338;28;20057;-91
2023/01/03 05:39:12;;;;;;;27.67;20.05;;;;;;;2.81;100.00;102533.22;4994053;28;20112;-91
2023/01/03 05:44:21;;;;;;;31.40;20.13;;;;;;;2.89;100.00;102531.34;4992165;28;20057;-91
2023/01/03 05:46:48;;;;;;;24.90;20.05;;;;;;;2.82;100.00;102535.78;4993297;28;20026;-91
2023/01/03 05:49:14;;;;;;;25.83;19.48;;;;;;;2.82;100.00;102541.00;4994179;28;20033;-91
2023/01/03 05:51:39;;;;;;;32.20;20.35;;;;;;;2.88;100.00;102542.63;4994912;28;20034;-91
2023/01/03 05:54:05;;;;;;;26.00;19.20;;;;;;;2.88;100.00;102539.19;4993872;28;20033;-91
2023/01/03 05:56:31;;;;;;;31.00;18.95;;;;;;;2.91;100.00;102536.53;4991034;28;20038;-91
2023/01/03 05:58:57;;;;;;;24.40;18.17;;;;;;;2.96;100.00;102535.56;4992618;28;20113;-91
2023/01/03 06:01:25;;;;;;;25.98;18.15;;;;;;;3.00;100.00;102529.44;4990561;28;20522;-91
2023/01/03 06:03:51;;;;;;;25.65;18.77;;;;;;;3.04;100.00;102531.13;4981712;28;20049;-90
2023/01/03 06:06:17;;;;;;;28.70;18.25;;;;;;;3.07;100.00;102525.84;4992233;28;20031;-91
2023/01/03 06:08:44;;;;;;;26.67;17.65;;;;;;;3.13;100.00;102520.56;4992218;28;20034;-91
2023/01/03 06:11:12;;;;;;;25.88;17.30;;;;;;;3.18;100.00;102511.81;4982896;28;20502;-90
2023/01/03 06:13:39;;;;;;;24.42;17.50;;;;;;;3.26;100.00;102516.03;4990113;28;20051;-91
2023/01/03 06:18:54;;;;;;;26.80;16.38;;;;;;;3.34;100.00;102518.50;4993917;28;20046;-91
2023/01/03 06:21:20;;;;;;;21.85;15.95;;;;;;;3.38;100.00;102509.75;5008751;28;20054;-90
2023/01/03 06:23:48;;;;;;;23.35;15.93;;;;;;;3.43;100.00;102508.78;4988391;28;20035;-90
2023/01/03 06:26:15;;;;;;;22.33;16.08;;;;;;;3.48;100.00;102513.91;4973594;28;20095;-91
2023/01/03 06:28:44;;;;;;;24.08;16.27;;;;;;;3.53;100.00;102514.69;4983611;28;20046;-91
2023/01/03 06:31:09;;;;;;;22.38;15.43;;;;;;;3.58;100.00;102506.78;4972333;28;20027;-90
2023/01/03 06:33:35;;;;;;;19.20;15.25;;;;;;;3.62;100.00;102503.28;4985119;28;20034;-91
2023/01/03 06:36:06;;;;;;;22.48;15.68;;;;;;;3.65;100.00;102506.66;4991708;28;20121;-91
2023/01/03 06:38:32;;;;;;;23.13;15.68;;;;;;;3.67;100.00;102507.50;4990878;28;20544;-91
2023/01/03 06:40:57;;;;;;;19.63;15.00;;;;;;;3.67;100.00;102502.28;4992865;28;20105;-91
2023/01/03 06:43:23;;;;;;;17.95;14.77;;;;;;;3.68;100.00;102501.41;5008311;28;20018;-91
2023/01/03 06:54:07;;;;;;;19.17;14.73;;;;;;;3.73;100.00;102483.94;4991720;28;20046;-90
2023/01/03 06:56:33;;;;;;;20.83;14.77;;;;;;;3.75;100.00;102476.09;4991623;28;20475;-91
2023/01/03 06:58:58;;;;;;;19.67;14.85;;;;;;;3.78;100.00;102479.50;4990636;28;20025;-91
2023/01/03 07:01:24;;;;;;;20.08;14.52;;;;;;;3.76;100.00;102490.84;4980177;28;20031;-90
2023/01/03 07:03:49;;;;;;;21.42;15.13;;;;;;;3.76;100.00;102491.69;4980609;28;20034;-90
2023/01/03 07:06:14;;;;;;;18.60;14.07;;;;;;;3.79;100.00;102493.38;4991515;28;20453;-91
2023/01/03 07:08:40;;;;;;;22.10;14.85;;;;;;;3.78;100.00;102489.91;4988435;28;20022;-91
2023/01/03 07:11:06;;;;;;;19.42;14.77;;;;;;;3.77;100.00;102498.63;5004937;28;20467;-91
2023/01/03 07:16:17;;;;;;;20.92;15.07;;;;;;;3.84;100.00;102534.94;4990349;28;20044;-91
2023/01/03 07:18:44;;;;;;;21.02;14.63;;;;;;;3.86;100.00;102536.63;4990373;28;20030;-90
2023/01/03 07:21:10;;;;;;;21.25;14.98;;;;;;;3.92;100.00;102530.44;5002474;28;20109;-91
2023/01/03 07:23:36;;;;;;;21.42;14.93;;;;;;;3.96;100.00;102534.69;4989665;28;20487;-90
2023/01/03 07:26:01;;;;;;;20.42;15.82;;;;;;;4.01;100.00;102532.91;4991367;28;20455;-90
2023/01/03 07:28:26;;;;;;;21.15;15.88;;;;;;;4.05;100.00;102535.41;4990862;28;20030;-91
2023/01/03 07:30:52;;;;;;;24.50;16.35;;;;;;;4.13;100.00;102526.56;4990291;28;20030;-90
2023/01/03 07:33:20;;;;;;;23.75;16.65;;;;;;;4.17;100.00;102523.88;4990237;28;20046;-90
2023/01/03 07:35:46;;;;;;;23.85;17.35;;;;;;;4.24;100.00;102533.28;4990817;28;20050;-91
2023/01/03 07:38:14;;;;;;;24.02;17.80;;;;;;;4.29;100.00;102528.81;4988378;28;20479;-92
2023/01/03 07:40:40;;;;;;;24.88;17.50;;;;;;;4.28;100.00;102532.31;4988648;28;20116;-91
2023/01/03 07:45:55;;;;;;;28.20;17.00;;;;;;;4.30;100.00;102535.75;4990806;28;20049;-91
2023/01/03 07:48:21;;;;;;;24.48;17.70;;;;;;;4.34;100.00;102526.97;4989283;28;20121;-91
2023/01/03 07:50:46;;;;;;;26.25;17.98;;;;;;;4.35;100.00;102539.13;4989874;28;20164;-91
2023/01/03 07:53:17;;;;;;;26.63;18.65;;;;;;;4.38;100.00;102544.25;4989790;28;20022;-91
2023/01/03 07:55:46;;;;;;;22.63;17.35;;;;;;;4.36;100.00;102540.84;4987419;28;20038;-92
2023/01/03 07:58:14;;;;;;;27.40;18.30;;;;;;;4.38;100.00;102546.00;4989709;28;20026;-91
2023/01/03 08:00:41;;;;;;;24.05;18.20;;;;;;;4.36;100.00;102546.03;4990187;28;20113;-91
2023/01/03 08:03:06;;;;;;;26.67;19.15;;;;;;;4.35;100.00;102554.75;5007012;28;20018;-91
2023/01/03 08:05:33;;;;;;;26.70;19.70;;;;;;;4.38;100.00;102559.91;4991927;28;20080;-91
2023/01/03 08:07:58;;;;;;;28.73;19.77;;;;;;;4.40;100.00;102558.16;4990351;28;20589;-90
2023/01/03 08:13:17;;;;;;;28.83;20.70;;;;;;;4.45;100.00;102570.22;4985074;28;20046;-90
2023/01/03 08:15:55;;;;;;;27.90;20.42;;;;;;;4.51;100.00;102567.47;4987741;28;20026;-91
2023/01/03 08:18:23;;;;;;;30.83;21.45;;;;;;;4.55;100.00;102572.59;4991797;28;20026;-91
2023/01/03 08:20:50;;;;;;;28.98;21.50;;;;;;;4.59;100.00;102573.38;4992733;28;20109;-92
2023/01/03 08:23:15;;;;;;;24.98;19.45;;;;;;;4.62;100.00;102583.75;4987024;28;20033;-91
2023/01/03 08:25:43;;;;;;;31.30;21.67;;;;;;;4.64;100.00;102574.13;4979782;28;20042;-92
2023/01/03 08:28:09;;;;;;;27.73;21.67;;;;;;;4.69;100.00;102575.75;4986919;28;20117;-91
2023/01/03 08:30:40;;;;;;;29.15;21.95;;;;;;;4.72;100.00;102569.63;4990651;28;20057;-91
2023/01/03 08:33:09;;;;;;;32.08;22.63;;;;;;;4.78;100.00;102579.91;4973815;28;20030;-91
2023/01/03 08:35:39;;;;;;;28.95;22.63;;;;;;;4.82;100.00;102585.94;4980030;28;20027;-89
2023/01/03 08:38:14;;;;;;;34.67;22.17;;;;;;;4.86;100.00;102578.00;4986670;28;20030;-92
2023/01/03 08:40:40;;;;;;;30.88;22.35;;;;;;;4.88;100.00;102585.78;4987018;28;20034;-91
2023/01/03 08:43:06;;;;;;;31.95;22.00;;;;;;;4.93;100.00;102592.63;4983609;28;20430;-90
2023/01/03 08:45:33;;;;;;;33.85;22.90;;;;;;;4.97;100.00;102590.78;4981549;28;20030;-91
2023/01/03 08:48:01;;;;;;;35.65;23.50;;;;;;;5.02;100.00;102587.19;4971556;28;20037;-91
2023/01/03 08:50:29;;;;;;;34.67;21.83;;;;;;;5.04;100.00;102584.53;4972256;28;20058;-91
2023/01/03 08:52:55;;;;;;;35.95;22.58;;;;;;;5.10;100.00;102588.75;4970899;28;20525;-91
2023/01/03 08:55:20;;;;;;;37.42;23.15;;;;;;;5.14;100.00;102591.25;4972940;28;20034;-92
2023/01/03 08:57:46;;;;;;;30.48;22.02;;;;;;;5.20;100.00;102605.91;4990698;28;20531;-90
2023/01/03 09:00:14;;;;;;;32.53;22.17;;;;;;;5.24;100.00;102599.75;4991244;28;20030;-91
2023/01/03 09:02:39;;;;;;;32.72;22.33;;;;;;;5.26;100.00;102597.97;4992096;28;20085;-91
2023/01/03 09:05:06;;;;;;;34.05;22.92;;;;;;;5.32;100.00;102603.03;4989349;28;20022;-92
2023/01/03 09:07:31;;;;;;;35.42;21.40;;;;;;;5.34;100.00;102596.88;4978698;28;20080;-91
2023/01/03 09:09:56;;;;;;;29.95;21.92;;;;;;;5.39;100.00;102595.91;4982740;28;20158;-91
2023/01/03 09:12:22;;;;;;;30.10;22.05;;;;;;;5.41;100.00;102600.19;5004234;28;20525;-90
2023/01/03 09:14:48;;;;;;;32.58;21.52;;;;;;;5.45;100.00;102600.97;4988297;28;20035;-91
2023/01/03 09:17:13;;;;;;;35.58;22.38;;;;;;;5.47;100.00;102605.25;4987376;28;20019;-90
2023/01/03 09:19:38;;;;;;;28.58;20.92;;;;;;;5.49;100.00;102600.84;5001948;28;20062;-91
2023/01/03 09:22:04;;;;;;;28.20;21.40;;;;;;;5.53;100.00;102601.63;5007015;28;20018;-91
2023/01/03 09:24:29;;;;;;;26.67;20.80;;;;;;;5.56;100.00;102599.81;4991447;28;20057;-91
2023/01/03 09:26:54;;;;;;;32.58;21.05;;;;;;;5.58;100.00;102602.38;4985517;28;20499;-91
2023/01/03 09:29:20;;;;;;;28.33;20.98;;;;;;;5.59;100.00;102597.13;4989838;28;20077;-90
2023/01/03 09:31:45;;;;;;;26.63;19.67;;;;;;;5.64;100.00;102591.81;4990135;28;20027;-91
2023/01/03 09:34:10;;;;;;;26.00;19.17;;;;;;;5.68;100.00;102595.19;4984529;28;20505;-90
2023/01/03 09:36:37;;;;;;;26.77;19.33;;;;;;;5.71;100.00;102595.97;4991960;28;20042;-91
2023/01/03 09:39:05;;;;;;;26.80;18.42;;;;;;;5.72;100.00;102602.91;4988448;28;20034;-91
2023/01/03 09:41:31;;;;;;;26.63;19.30;;;;;;;5.74;100.00;102595.03;4973980;28;20034;-91
2023/01/03 09:44:05;;;;;;;30.02;19.15;;;;;;;5.78;100.00;102601.88;4975875;28;20081;-90
2023/01/03 09:46:31;;;;;;;27.05;17.85;;;;;;;5.82;100.00;102606.13;4976147;28;20479;-91
2023/01/03 09:48:59;;;;;;;29.00;18.58;;;;;;;5.83;100.00;102605.22;4989784;28;20026;-91
2023/01/03 10:06:04;;;;;;;25.73;15.98;;;;;;;6.07;100.00;102590.72;4994528;28;20048;-91
2023/01/03 10:08:45;;;;;;;21.80;16.02;;;;;;;6.13;100.00;102590.53;5006106;28;20044;-91
2023/01/03 10:11:25;;;;;;;19.65;15.13;;;;;;;6.15;100.00;102592.22;4988235;28;20483;-91
2023/01/03 10:14:08;;;;;;;22.42;14.13;;;;;;;6.18;100.00;102589.50;4991098;28;20503;-91
2023/01/03 10:16:59;;;;;;;20.35;14.60;;;;;;;6.24;100.00;102597.19;4991872;28;20080;-91
2023/01/03 10:19:43;;;;;;;20.45;13.75;;;;;;;6.25;100.00;102595.41;5004285;28;20474;-91
2023/01/03 10:22:19;;;;;;;24.20;13.80;;;;;;;6.29;100.00;102592.69;4990735;28;20042;-91
2023/01/03 10:24:49;;;;;;;20.88;13.55;;;;;;;6.35;100.00;102588.16;4986220;28;20046;-91
2023/01/03 10:27:23;;;;;;;21.50;13.27;;;;;;;6.41;100.00;102598.47;4991366;28;20100;-91
2023/01/03 10:29:54;;;;;;;17.15;12.70;;;;;;;6.45;100.00;102592.25;4992325;28;20049;-91
2023/01/03 10:32:46;;;;;;;19.33;12.80;;;;;;;6.53;100.00;102595.50;4992963;28;20026;-91
2023/01/03 10:35:32;;;;;;;20.02;12.13;;;;;;;6.55;100.00;102586.72;4989469;28;20046;-91
2023/01/03 10:37:59;;;;;;;17.58;11.90;;;;;;;6.57;100.00;102584.06;4979271;28;20026;-91
2023/01/03 10:40:54;;;;;;;17.00;11.82;;;;;;;6.60;100.00;102595.28;4969738;28;20023;-91
2023/01/03 10:43:28;;;;;;;16.88;11.27;;;;;;;6.66;100.00;102602.09;4963100;28;20043;-91
2023/01/03 10:46:03;;;;;;;18.77;11.60;;;;;;;6.69;100.00;102594.16;4974245;28;20494;-90
2023/01/03 10:48:43;;;;;;;17.30;11.32;;;;;;;6.76;100.00;102595.66;4962697;28;20137;-91
2023/01/03 10:51:39;;;;;;;18.27;10.88;;;;;;;6.80;100.00;102594.66;4961296;28;20034;-90
2023/01/03 10:54:17;;;;;;;16.45;11.25;;;;;;;6.84;100.00;102588.47;4987652;28;20035;-91
2023/01/03 10:56:43;;;;;;;16.27;10.05;;;;;;;6.86;100.00;102589.28;4973191;28;20030;-90
2023/01/03 10:59:30;;;;;;;19.17;10.77;;;;;;;6.88;100.00;102595.31;4967241;28;20110;-91
2023/01/03 11:02:08;;;;;;;20.70;10.25;;;;;;;6.87;100.00;102587.53;4969409;28;20058;-89
2023/01/03 11:04:34;;;;;;;16.05;9.70;;;;;;;6.90;100.00;102597.88;4988729;28;20442;-91
2023/01/03 11:07:12;;;;;;;16.60;10.82;;;;;;;6.92;100.00;102593.47;4973050;28;20052;-91
2023/01/03 11:09:40;;;;;;;13.63;9.43;;;;;;;6.89;100.00;102581.34;4972149;28;20034;-90
2023/01/03 11:12:17;;;;;;;15.25;9.60;;;;;;;6.93;100.00;102578.63;4972470;28;20022;-90
2023/01/03 11:14:51;;;;;;;15.43;9.25;;;;;;;6.95;100.00;102584.66;4971882;28;20153;-91
2023/01/03 11:17:21;;;;;;;17.20;9.50;;;;;;;6.95;100.00;102582.03;4971120;28;20049;-90
2023/01/03 11:19:49;;;;;;;16.48;9.52;;;;;;;6.95;100.00;102575.06;4968286;28;20038;-91
2023/01/03 11:22:43;;;;;;;15.02;9.75;;;;;;;6.98;100.00;102584.56;4970402;28;20030;-91
2023/01/03 11:25:33;;;;;;;17.05;9.77;;;;;;;6.98;100.00;102590.66;4968884;28;20018;-91
2023/01/03 11:28:07;;;;;;;14.35;9.50;;;;;;;6.97;100.00;102588.94;4968525;28;20023;-91
2023/01/03 11:30:52;;;;;;;16.45;9.70;;;;;;;6.99;100.00;102581.03;4972186;28;20121;-90
2023/01/03 11:33:27;;;;;;;15.40;10.23;;;;;;;6.96;100.00;102581.13;4957479;28;20035;-91
2023/01/03 11:36:10;;;;;;;16.98;10.60;;;;;;;6.94;100.00;102577.72;4978787;28;20051;-90
2023/01/03 11:39:03;;;;;;;15.52;10.93;;;;;;;6.93;100.00;102582.09;4969827;28;20031;-90
2023/01/03 11:41:39;;;;;;;18.25;11.27;;;;;;;6.92;100.00;102590.84;4959262;28;20041;-91
2023/01/03 11:44:32;;;;;;;15.90;10.48;;;;;;;6.94;100.00;102582.94;4980376;28;20054;-91
2023/01/03 11:47:29;;;;;;;16.45;10.00;;;;;;;6.93;100.00;102578.63;4974336;28;20035;-91
2023/01/03 11:50:23;;;;;;;18.60;10.77;;;;;;;6.93;100.00;102570.78;4972106;28;20026;-91
2023/01/03 11:53:02;;;;;;;18.38;10.77;;;;;;;6.91;100.00;102574.28;4971392;28;20035;-91
2023/01/03 11:55:49;;;;;;;16.20;10.73;;;;;;;6.96;100.00;102571.53;4972083;28;20082;-91
2023/01/03 11:58:24;;;;;;;13.57;9.60;;;;;;;6.93;100.00;102571.63;4971338;28;20112;-92
2023/01/03 12:01:07;;;;;;;15.15;9.10;;;;;;;6.95;100.00;102559.34;4969157;28;20068;-92
2023/01/03 12:04:06;;;;;;;11.60;9.00;;;;;;;7.07;100.00;102555.47;4987100;28;20053;-93
2023/01/03 12:06:54;;;;;;;10.82;7.63;;;;;;;7.17;100.00;102549.03;4983541;28;20026;-92
2023/01/03 12:09:36;;;;;;;;;;;;;;;;;;;;;
2023/01/03 12:12:17;;;;;;;9.02;6.43;;;;;;;7.38;100.00;102548.34;4960773;28;20026;-91
2023/01/03 12:14:51;;;;;;;9.25;5.25;;;;;;;7.44;100.00;102535.03;4977150;28;20066;-91
2023/01/03 12:17:38;;;;;;;10.57;5.03;;;;;;;7.47;100.00;102534.94;4972482;28;20045;-91
2023/01/03 12:20:15;;;;;;;8.13;4.80;;;;;;;7.51;100.00;102528.69;4971002;28;20545;-92
2023/01/03 12:22:53;;;;;;;9.95;5.20;;;;;;;7.57;100.00;102526.75;4971744;28;20101;-92
2023/01/03 12:25:37;;;;;;;9.68;4.95;;;;;;;7.58;100.00;102524.09;4972051;28;20023;-92
2023/01/03 12:28:10;;;;;;;11.23;4.90;;;;;;;7.61;100.00;102520.53;4970753;28;20086;-92
2023/01/03 12:30:57;;;;;;;9.45;5.30;;;;;;;7.65;100.00;102516.91;4970651;28;20109;-92
2023/01/03 12:36:00;;;;;;;10.23;5.32;;;;;;;7.68;100.00;102520.25;4987825;28;20047;-91